Terminal Aerodrome Forecast
Issued by NWS

Home | Current Version | Previous Version | Graphics & Text | Print | Product List | Glossary On
Versions: 1 2 3 4 5 6 7 8 9 10 11 12 13 14 15 16
000
FTUS43 KUNR 031500 AAB
TAFGCC
TAF AMD
KGCC 031508Z 0315/0412 35015KT 3SM -SN BKN035
      TEMPO 0315/0317 1 1/2SM -SN BKN025
     FM031800 33012KT P6SM BKN030
     FM040000 27009KT P6SM SCT040=

USA.gov is the U.S. government's official web portal to all federal, state and local government web resources and services.